sensor_id;sensor_type;location;lat;lon;timestamp;P1;durP1;ratioP1;P2;durP2;ratioP2
41799;SDS011;27468;47.460;19.034;2023-12-29T00:01:06;4.57;;;4.17;;
41799;SDS011;27468;47.460;19.034;2023-12-29T00:03:31;8.27;;;3.23;;
41799;SDS011;27468;47.460;19.034;2023-12-29T00:05:56;3.67;;;2.57;;
41799;SDS011;27468;47.460;19.034;2023-12-29T00:08:22;5.03;;;2.90;;
41799;SDS011;27468;47.460;19.034;2023-12-29T00:10:47;3.70;;;3.23;;
41799;SDS011;27468;47.460;19.034;2023-12-29T00:13:12;4.83;;;3.10;;
41799;SDS011;27468;47.460;19.034;2023-12-29T00:15:37;5.20;;;3.53;;
41799;SDS011;27468;47.460;19.034;2023-12-29T00:18:03;4.97;;;3.17;;
41799;SDS011;27468;47.460;19.034;2023-12-29T00:20:28;4.43;;;2.17;;
41799;SDS011;27468;47.460;19.034;2023-12-29T00:22:54;4.70;;;2.13;;
41799;SDS011;27468;47.460;19.034;2023-12-29T00:25:23;2.53;;;2.33;;
41799;SDS011;27468;47.460;19.034;2023-12-29T00:27:48;2.37;;;2.27;;
41799;SDS011;27468;47.460;19.034;2023-12-29T00:30:14;3.03;;;1.93;;
41799;SDS011;27468;47.460;19.034;2023-12-29T00:32:40;2.83;;;2.53;;
41799;SDS011;27468;47.460;19.034;2023-12-29T00:35:05;2.90;;;2.70;;
41799;SDS011;27468;47.460;19.034;2023-12-29T00:37:31;4.57;;;3.27;;
41799;SDS011;27468;47.460;19.034;2023-12-29T00:39:56;8.83;;;3.97;;
41799;SDS011;27468;47.460;19.034;2023-12-29T00:42:21;3.77;;;3.37;;
41799;SDS011;27468;47.460;19.034;2023-12-29T00:44:46;1.57;;;1.53;;
41799;SDS011;27468;47.460;19.034;2023-12-29T00:47:12;12.13;;;3.13;;
41799;SDS011;27468;47.460;19.034;2023-12-29T00:49:40;5.20;;;2.73;;
41799;SDS011;27468;47.460;19.034;2023-12-29T00:52:06;5.00;;;2.77;;
41799;SDS011;27468;47.460;19.034;2023-12-29T00:54:31;5.17;;;3.50;;
41799;SDS011;27468;47.460;19.034;2023-12-29T00:56:56;3.87;;;2.07;;
41799;SDS011;27468;47.460;19.034;2023-12-29T00:59:22;4.27;;;3.00;;
41799;SDS011;27468;47.460;19.034;2023-12-29T01:01:47;3.60;;;3.10;;
41799;SDS011;27468;47.460;19.034;2023-12-29T01:04:12;3.97;;;3.57;;
41799;SDS011;27468;47.460;19.034;2023-12-29T01:06:38;5.63;;;1.73;;
41799;SDS011;27468;47.460;19.034;2023-12-29T01:09:03;3.63;;;2.87;;
41799;SDS011;27468;47.460;19.034;2023-12-29T01:11:28;7.70;;;5.50;;
41799;SDS011;27468;47.460;19.034;2023-12-29T01:13:54;4.50;;;2.60;;
41799;SDS011;27468;47.460;19.034;2023-12-29T01:16:21;3.63;;;2.33;;
41799;SDS011;27468;47.460;19.034;2023-12-29T01:18:46;3.03;;;2.73;;
41799;SDS011;27468;47.460;19.034;2023-12-29T01:21:11;4.63;;;3.47;;
41799;SDS011;27468;47.460;19.034;2023-12-29T01:23:36;4.33;;;2.13;;
41799;SDS011;27468;47.460;19.034;2023-12-29T01:26:02;2.57;;;2.37;;
41799;SDS011;27468;47.460;19.034;2023-12-29T01:28:27;3.43;;;3.13;;
41799;SDS011;27468;47.460;19.034;2023-12-29T01:30:53;2.20;;;2.00;;
41799;SDS011;27468;47.460;19.034;2023-12-29T01:33:18;3.63;;;3.27;;
41799;SDS011;27468;47.460;19.034;2023-12-29T01:35:46;2.90;;;2.70;;
41799;SDS011;27468;47.460;19.034;2023-12-29T01:38:11;3.33;;;2.70;;
41799;SDS011;27468;47.460;19.034;2023-12-29T01:40:43;4.77;;;3.13;;
41799;SDS011;27468;47.460;19.034;2023-12-29T01:43:12;3.03;;;2.83;;
41799;SDS011;27468;47.460;19.034;2023-12-29T01:45:38;4.33;;;3.13;;
41799;SDS011;27468;47.460;19.034;2023-12-29T01:48:03;4.23;;;3.50;;
41799;SDS011;27468;47.460;19.034;2023-12-29T01:50:29;2.37;;;2.20;;
41799;SDS011;27468;47.460;19.034;2023-12-29T01:52:54;2.40;;;1.40;;
41799;SDS011;27468;47.460;19.034;2023-12-29T01:55:22;3.30;;;3.00;;
41799;SDS011;27468;47.460;19.034;2023-12-29T01:57:50;5.43;;;3.87;;
41799;SDS011;27468;47.460;19.034;2023-12-29T02:00:16;2.70;;;2.57;;
41799;SDS011;27468;47.460;19.034;2023-12-29T02:02:43;3.70;;;3.17;;
41799;SDS011;27468;47.460;19.034;2023-12-29T02:05:10;4.53;;;2.10;;
41799;SDS011;27468;47.460;19.034;2023-12-29T02:07:40;2.67;;;2.47;;
41799;SDS011;27468;47.460;19.034;2023-12-29T02:10:06;1.80;;;1.70;;
41799;SDS011;27468;47.460;19.034;2023-12-29T02:12:32;4.50;;;1.70;;
41799;SDS011;27468;47.460;19.034;2023-12-29T02:14:59;2.50;;;2.30;;
41799;SDS011;27468;47.460;19.034;2023-12-29T02:17:31;2.07;;;1.97;;
41799;SDS011;27468;47.460;19.034;2023-12-29T02:20:00;4.00;;;3.23;;
41799;SDS011;27468;47.460;19.034;2023-12-29T02:22:26;3.20;;;1.97;;
41799;SDS011;27468;47.460;19.034;2023-12-29T02:24:51;5.73;;;3.90;;
41799;SDS011;27468;47.460;19.034;2023-12-29T02:29:51;6.47;;;2.37;;
41799;SDS011;27468;47.460;19.034;2023-12-29T02:32:23;2.00;;;1.70;;
41799;SDS011;27468;47.460;19.034;2023-12-29T02:34:51;2.63;;;2.33;;
41799;SDS011;27468;47.460;19.034;2023-12-29T02:37:17;3.90;;;3.23;;
41799;SDS011;27468;47.460;19.034;2023-12-29T02:39:44;2.90;;;1.67;;
41799;SDS011;27468;47.460;19.034;2023-12-29T02:42:09;3.20;;;2.87;;
41799;SDS011;27468;47.460;19.034;2023-12-29T02:44:34;3.83;;;2.03;;
41799;SDS011;27468;47.460;19.034;2023-12-29T02:47:00;2.23;;;2.03;;
41799;SDS011;27468;47.460;19.034;2023-12-29T02:49:26;2.10;;;1.87;;
41799;SDS011;27468;47.460;19.034;2023-12-29T02:51:51;4.07;;;3.47;;
41799;SDS011;27468;47.460;19.034;2023-12-29T02:54:17;3.37;;;3.07;;
41799;SDS011;27468;47.460;19.034;2023-12-29T02:56:42;3.93;;;2.10;;
41799;SDS011;27468;47.460;19.034;2023-12-29T02:59:07;2.03;;;1.93;;
41799;SDS011;27468;47.460;19.034;2023-12-29T03:01:33;3.20;;;1.77;;
41799;SDS011;27468;47.460;19.034;2023-12-29T03:04:00;2.57;;;2.17;;
41799;SDS011;27468;47.460;19.034;2023-12-29T03:06:26;3.43;;;3.10;;
41799;SDS011;27468;47.460;19.034;2023-12-29T03:08:51;2.10;;;1.70;;
41799;SDS011;27468;47.460;19.034;2023-12-29T03:11:16;1.23;;;1.13;;
41799;SDS011;27468;47.460;19.034;2023-12-29T03:13:42;1.60;;;1.50;;
41799;SDS011;27468;47.460;19.034;2023-12-29T03:16:07;3.60;;;3.33;;
41799;SDS011;27468;47.460;19.034;2023-12-29T03:18:33;2.47;;;2.27;;
41799;SDS011;27468;47.460;19.034;2023-12-29T03:20:58;4.57;;;2.50;;
41799;SDS011;27468;47.460;19.034;2023-12-29T03:23:23;4.33;;;4.03;;
41799;SDS011;27468;47.460;19.034;2023-12-29T03:25:48;4.50;;;2.73;;
41799;SDS011;27468;47.460;19.034;2023-12-29T03:28:14;2.83;;;2.07;;
41799;SDS011;27468;47.460;19.034;2023-12-29T03:30:39;2.77;;;2.33;;
41799;SDS011;27468;47.460;19.034;2023-12-29T03:33:04;2.23;;;1.70;;
41799;SDS011;27468;47.460;19.034;2023-12-29T03:35:30;3.67;;;1.40;;
41799;SDS011;27468;47.460;19.034;2023-12-29T03:37:55;5.07;;;2.07;;
41799;SDS011;27468;47.460;19.034;2023-12-29T03:40:20;5.23;;;3.00;;
41799;SDS011;27468;47.460;19.034;2023-12-29T03:42:46;1.70;;;1.43;;
41799;SDS011;27468;47.460;19.034;2023-12-29T03:45:11;5.70;;;2.37;;
41799;SDS011;27468;47.460;19.034;2023-12-29T03:47:36;3.77;;;3.40;;
41799;SDS011;27468;47.460;19.034;2023-12-29T03:50:02;6.80;;;1.97;;
41799;SDS011;27468;47.460;19.034;2023-12-29T03:52:28;5.67;;;2.43;;
41799;SDS011;27468;47.460;19.034;2023-12-29T03:54:53;1.80;;;1.67;;
41799;SDS011;27468;47.460;19.034;2023-12-29T03:57:19;5.57;;;5.00;;
41799;SDS011;27468;47.460;19.034;2023-12-29T03:59:44;2.50;;;2.30;;
41799;SDS011;27468;47.460;19.034;2023-12-29T04:02:09;5.93;;;3.13;;
41799;SDS011;27468;47.460;19.034;2023-12-29T04:04:37;4.33;;;3.40;;
41799;SDS011;27468;47.460;19.034;2023-12-29T04:07:03;2.23;;;2.03;;
41799;SDS011;27468;47.460;19.034;2023-12-29T04:09:29;3.70;;;3.43;;
41799;SDS011;27468;47.460;19.034;2023-12-29T04:11:55;3.93;;;3.03;;
41799;SDS011;27468;47.460;19.034;2023-12-29T04:14:20;2.77;;;1.80;;
41799;SDS011;27468;47.460;19.034;2023-12-29T04:16:46;1.50;;;1.07;;
41799;SDS011;27468;47.460;19.034;2023-12-29T04:19:11;2.50;;;2.37;;
41799;SDS011;27468;47.460;19.034;2023-12-29T04:21:36;2.13;;;1.67;;
41799;SDS011;27468;47.460;19.034;2023-12-29T04:24:01;2.63;;;1.20;;
41799;SDS011;27468;47.460;19.034;2023-12-29T04:26:27;3.57;;;2.57;;
41799;SDS011;27468;47.460;19.034;2023-12-29T04:28:52;2.07;;;1.97;;
41799;SDS011;27468;47.460;19.034;2023-12-29T04:31:18;5.83;;;1.97;;
41799;SDS011;27468;47.460;19.034;2023-12-29T04:33:43;0.63;;;0.63;;
41799;SDS011;27468;47.460;19.034;2023-12-29T04:36:08;2.40;;;1.90;;
41799;SDS011;27468;47.460;19.034;2023-12-29T04:38:34;1.40;;;1.30;;
41799;SDS011;27468;47.460;19.034;2023-12-29T04:40:59;2.03;;;1.87;;
41799;SDS011;27468;47.460;19.034;2023-12-29T04:43:24;3.67;;;3.37;;
41799;SDS011;27468;47.460;19.034;2023-12-29T04:45:49;3.67;;;3.33;;
41799;SDS011;27468;47.460;19.034;2023-12-29T04:48:15;3.23;;;1.80;;
41799;SDS011;27468;47.460;19.034;2023-12-29T04:50:40;1.70;;;1.60;;
41799;SDS011;27468;47.460;19.034;2023-12-29T04:53:05;2.70;;;2.60;;
41799;SDS011;27468;47.460;19.034;2023-12-29T04:55:31;2.47;;;1.87;;
41799;SDS011;27468;47.460;19.034;2023-12-29T04:57:56;2.73;;;1.70;;
41799;SDS011;27468;47.460;19.034;2023-12-29T05:00:21;3.33;;;2.23;;
41799;SDS011;27468;47.460;19.034;2023-12-29T05:02:47;2.93;;;2.53;;
41799;SDS011;27468;47.460;19.034;2023-12-29T05:05:12;4.90;;;2.90;;
41799;SDS011;27468;47.460;19.034;2023-12-29T05:07:37;3.33;;;2.90;;
41799;SDS011;27468;47.460;19.034;2023-12-29T05:10:03;3.47;;;3.10;;
41799;SDS011;27468;47.460;19.034;2023-12-29T05:12:28;4.60;;;3.37;;
41799;SDS011;27468;47.460;19.034;2023-12-29T05:14:55;5.77;;;3.43;;
41799;SDS011;27468;47.460;19.034;2023-12-29T05:17:20;6.53;;;4.13;;
41799;SDS011;27468;47.460;19.034;2023-12-29T05:19:45;8.07;;;5.20;;
41799;SDS011;27468;47.460;19.034;2023-12-29T05:22:11;5.57;;;4.93;;
41799;SDS011;27468;47.460;19.034;2023-12-29T05:24:40;8.60;;;4.23;;
41799;SDS011;27468;47.460;19.034;2023-12-29T05:27:05;6.77;;;4.63;;
41799;SDS011;27468;47.460;19.034;2023-12-29T05:29:31;8.03;;;5.17;;
41799;SDS011;27468;47.460;19.034;2023-12-29T05:31:56;11.10;;;5.10;;
41799;SDS011;27468;47.460;19.034;2023-12-29T05:34:21;6.43;;;5.40;;
41799;SDS011;27468;47.460;19.034;2023-12-29T05:36:46;9.13;;;5.10;;
41799;SDS011;27468;47.460;19.034;2023-12-29T05:39:12;6.73;;;3.60;;
41799;SDS011;27468;47.460;19.034;2023-12-29T05:41:37;4.27;;;3.87;;
41799;SDS011;27468;47.460;19.034;2023-12-29T05:44:02;6.70;;;5.20;;
41799;SDS011;27468;47.460;19.034;2023-12-29T05:46:28;4.33;;;4.00;;
41799;SDS011;27468;47.460;19.034;2023-12-29T05:48:53;5.83;;;5.23;;
41799;SDS011;27468;47.460;19.034;2023-12-29T05:51:19;6.47;;;4.47;;
41799;SDS011;27468;47.460;19.034;2023-12-29T05:53:44;7.60;;;5.77;;
41799;SDS011;27468;47.460;19.034;2023-12-29T05:56:11;5.43;;;4.93;;
41799;SDS011;27468;47.460;19.034;2023-12-29T05:58:38;5.93;;;4.43;;
41799;SDS011;27468;47.460;19.034;2023-12-29T06:01:05;7.43;;;6.30;;
41799;SDS011;27468;47.460;19.034;2023-12-29T06:03:30;5.53;;;5.03;;
41799;SDS011;27468;47.460;19.034;2023-12-29T06:05:56;11.40;;;4.87;;
41799;SDS011;27468;47.460;19.034;2023-12-29T06:08:21;8.17;;;5.43;;
41799;SDS011;27468;47.460;19.034;2023-12-29T06:10:46;6.20;;;5.60;;
41799;SDS011;27468;47.460;19.034;2023-12-29T06:13:12;8.43;;;4.57;;
41799;SDS011;27468;47.460;19.034;2023-12-29T06:15:37;11.40;;;5.03;;
41799;SDS011;27468;47.460;19.034;2023-12-29T06:18:03;5.37;;;4.27;;
41799;SDS011;27468;47.460;19.034;2023-12-29T06:20:29;6.40;;;4.67;;
41799;SDS011;27468;47.460;19.034;2023-12-29T06:22:55;4.97;;;4.40;;
41799;SDS011;27468;47.460;19.034;2023-12-29T06:25:21;7.47;;;6.73;;
41799;SDS011;27468;47.460;19.034;2023-12-29T06:27:46;4.67;;;3.83;;
41799;SDS011;27468;47.460;19.034;2023-12-29T06:30:11;4.27;;;3.90;;
41799;SDS011;27468;47.460;19.034;2023-12-29T06:32:37;9.13;;;7.13;;
41799;SDS011;27468;47.460;19.034;2023-12-29T06:35:03;9.93;;;4.97;;
41799;SDS011;27468;47.460;19.034;2023-12-29T06:37:29;5.23;;;4.13;;
41799;SDS011;27468;47.460;19.034;2023-12-29T06:39:54;6.10;;;4.73;;
41799;SDS011;27468;47.460;19.034;2023-12-29T06:42:20;7.03;;;4.40;;
41799;SDS011;27468;47.460;19.034;2023-12-29T06:44:45;5.70;;;4.67;;
41799;SDS011;27468;47.460;19.034;2023-12-29T06:47:11;6.87;;;4.97;;
41799;SDS011;27468;47.460;19.034;2023-12-29T06:49:36;9.27;;;5.87;;
41799;SDS011;27468;47.460;19.034;2023-12-29T06:52:02;7.10;;;4.20;;
41799;SDS011;27468;47.460;19.034;2023-12-29T06:54:27;11.47;;;6.03;;
41799;SDS011;27468;47.460;19.034;2023-12-29T06:56:53;6.97;;;6.03;;
41799;SDS011;27468;47.460;19.034;2023-12-29T06:59:18;5.97;;;3.73;;
41799;SDS011;27468;47.460;19.034;2023-12-29T07:01:45;5.07;;;4.13;;
41799;SDS011;27468;47.460;19.034;2023-12-29T07:04:10;10.83;;;6.37;;
41799;SDS011;27468;47.460;19.034;2023-12-29T07:06:36;8.23;;;4.10;;
41799;SDS011;27468;47.460;19.034;2023-12-29T07:09:01;9.03;;;6.10;;
41799;SDS011;27468;47.460;19.034;2023-12-29T07:11:28;8.57;;;5.70;;
41799;SDS011;27468;47.460;19.034;2023-12-29T07:13:53;7.37;;;5.60;;
41799;SDS011;27468;47.460;19.034;2023-12-29T07:16:19;6.73;;;4.57;;
41799;SDS011;27468;47.460;19.034;2023-12-29T07:18:45;4.97;;;4.40;;
41799;SDS011;27468;47.460;19.034;2023-12-29T07:21:11;5.90;;;5.43;;
41799;SDS011;27468;47.460;19.034;2023-12-29T07:23:37;3.77;;;3.47;;
41799;SDS011;27468;47.460;19.034;2023-12-29T07:26:03;9.07;;;5.33;;
41799;SDS011;27468;47.460;19.034;2023-12-29T07:28:28;6.80;;;5.10;;
41799;SDS011;27468;47.460;19.034;2023-12-29T07:30:53;5.60;;;5.03;;
41799;SDS011;27468;47.460;19.034;2023-12-29T07:33:19;9.43;;;4.73;;
41799;SDS011;27468;47.460;19.034;2023-12-29T07:35:44;7.17;;;3.93;;
41799;SDS011;27468;47.460;19.034;2023-12-29T07:38:09;8.30;;;5.27;;
41799;SDS011;27468;47.460;19.034;2023-12-29T07:40:35;3.17;;;2.87;;
41799;SDS011;27468;47.460;19.034;2023-12-29T07:43:00;2.87;;;2.67;;
41799;SDS011;27468;47.460;19.034;2023-12-29T07:45:25;5.57;;;4.23;;
41799;SDS011;27468;47.460;19.034;2023-12-29T07:47:51;6.63;;;4.37;;
41799;SDS011;27468;47.460;19.034;2023-12-29T07:50:16;5.20;;;4.70;;
41799;SDS011;27468;47.460;19.034;2023-12-29T07:52:44;4.83;;;3.53;;
41799;SDS011;27468;47.460;19.034;2023-12-29T07:55:10;4.70;;;4.10;;
41799;SDS011;27468;47.460;19.034;2023-12-29T07:57:35;5.17;;;4.70;;
41799;SDS011;27468;47.460;19.034;2023-12-29T08:00:01;6.17;;;4.43;;
41799;SDS011;27468;47.460;19.034;2023-12-29T08:02:26;5.03;;;4.07;;
41799;SDS011;27468;47.460;19.034;2023-12-29T08:04:52;5.60;;;4.67;;
41799;SDS011;27468;47.460;19.034;2023-12-29T08:07:19;5.20;;;4.80;;
41799;SDS011;27468;47.460;19.034;2023-12-29T08:09:44;11.60;;;4.13;;
41799;SDS011;27468;47.460;19.034;2023-12-29T08:12:10;8.73;;;3.90;;
41799;SDS011;27468;47.460;19.034;2023-12-29T08:14:35;5.80;;;4.73;;
41799;SDS011;27468;47.460;19.034;2023-12-29T08:17:01;5.27;;;4.40;;
41799;SDS011;27468;47.460;19.034;2023-12-29T08:19:26;7.27;;;5.03;;
41799;SDS011;27468;47.460;19.034;2023-12-29T08:21:52;5.23;;;4.13;;
41799;SDS011;27468;47.460;19.034;2023-12-29T08:24:17;8.50;;;5.57;;
41799;SDS011;27468;47.460;19.034;2023-12-29T08:26:45;5.13;;;4.20;;
41799;SDS011;27468;47.460;19.034;2023-12-29T08:29:12;5.57;;;4.93;;
41799;SDS011;27468;47.460;19.034;2023-12-29T08:31:38;4.30;;;3.40;;
41799;SDS011;27468;47.460;19.034;2023-12-29T08:34:04;3.63;;;3.30;;
41799;SDS011;27468;47.460;19.034;2023-12-29T08:36:29;4.00;;;2.87;;
41799;SDS011;27468;47.460;19.034;2023-12-29T08:38:54;7.77;;;5.93;;
41799;SDS011;27468;47.460;19.034;2023-12-29T08:41:21;3.83;;;3.03;;
41799;SDS011;27468;47.460;19.034;2023-12-29T08:43:46;7.77;;;3.90;;
41799;SDS011;27468;47.460;19.034;2023-12-29T08:46:11;5.70;;;4.40;;
41799;SDS011;27468;47.460;19.034;2023-12-29T08:48:37;4.13;;;3.77;;
41799;SDS011;27468;47.460;19.034;2023-12-29T08:51:02;4.27;;;3.97;;
41799;SDS011;27468;47.460;19.034;2023-12-29T08:53:27;5.60;;;3.83;;
41799;SDS011;27468;47.460;19.034;2023-12-29T08:55:56;3.57;;;3.30;;
41799;SDS011;27468;47.460;19.034;2023-12-29T08:58:21;9.27;;;6.37;;
41799;SDS011;27468;47.460;19.034;2023-12-29T09:00:46;6.27;;;5.17;;
41799;SDS011;27468;47.460;19.034;2023-12-29T09:03:12;6.13;;;5.03;;
41799;SDS011;27468;47.460;19.034;2023-12-29T09:05:37;9.27;;;4.40;;
41799;SDS011;27468;47.460;19.034;2023-12-29T09:08:02;5.37;;;4.87;;
41799;SDS011;27468;47.460;19.034;2023-12-29T09:10:28;5.67;;;4.93;;
41799;SDS011;27468;47.460;19.034;2023-12-29T09:12:53;9.97;;;6.03;;
41799;SDS011;27468;47.460;19.034;2023-12-29T09:15:19;10.60;;;5.30;;
41799;SDS011;27468;47.460;19.034;2023-12-29T09:17:45;8.10;;;6.37;;
41799;SDS011;27468;47.460;19.034;2023-12-29T09:20:11;4.30;;;3.57;;
41799;SDS011;27468;47.460;19.034;2023-12-29T09:22:36;5.33;;;4.73;;
41799;SDS011;27468;47.460;19.034;2023-12-29T09:25:01;11.33;;;6.60;;
41799;SDS011;27468;47.460;19.034;2023-12-29T09:27:27;6.47;;;5.27;;
41799;SDS011;27468;47.460;19.034;2023-12-29T09:29:52;11.37;;;6.50;;
41799;SDS011;27468;47.460;19.034;2023-12-29T09:32:17;9.03;;;7.17;;
41799;SDS011;27468;47.460;19.034;2023-12-29T09:34:43;8.40;;;6.03;;
41799;SDS011;27468;47.460;19.034;2023-12-29T09:37:08;11.95;;;7.72;;
41799;SDS011;27468;47.460;19.034;2023-12-29T09:39:34;7.40;;;6.00;;
41799;SDS011;27468;47.460;19.034;2023-12-29T09:41:59;5.32;;;4.35;;
41799;SDS011;27468;47.460;19.034;2023-12-29T09:44:25;7.35;;;5.65;;
41799;SDS011;27468;47.460;19.034;2023-12-29T09:46:53;5.72;;;4.75;;
41799;SDS011;27468;47.460;19.034;2023-12-29T09:49:19;7.78;;;6.10;;
41799;SDS011;27468;47.460;19.034;2023-12-29T09:51:45;12.43;;;6.55;;
41799;SDS011;27468;47.460;19.034;2023-12-29T09:54:11;9.93;;;6.97;;
41799;SDS011;27468;47.460;19.034;2023-12-29T09:56:38;7.43;;;5.97;;
41799;SDS011;27468;47.460;19.034;2023-12-29T09:59:04;7.80;;;6.13;;
41799;SDS011;27468;47.460;19.034;2023-12-29T10:01:29;9.13;;;5.25;;
41799;SDS011;27468;47.460;19.034;2023-12-29T10:03:57;7.18;;;4.75;;
41799;SDS011;27468;47.460;19.034;2023-12-29T10:06:23;7.50;;;6.80;;
41799;SDS011;27468;47.460;19.034;2023-12-29T10:08:50;6.45;;;4.75;;
41799;SDS011;27468;47.460;19.034;2023-12-29T10:11:16;8.30;;;6.78;;
41799;SDS011;27468;47.460;19.034;2023-12-29T10:13:43;7.88;;;6.80;;
41799;SDS011;27468;47.460;19.034;2023-12-29T10:16:31;11.65;;;7.93;;
41799;SDS011;27468;47.460;19.034;2023-12-29T10:21:38;5.80;;;5.25;;
41799;SDS011;27468;47.460;19.034;2023-12-29T10:24:29;8.68;;;6.07;;
41799;SDS011;27468;47.460;19.034;2023-12-29T10:26:54;5.15;;;4.60;;
41799;SDS011;27468;47.460;19.034;2023-12-29T10:29:20;8.20;;;6.93;;
41799;SDS011;27468;47.460;19.034;2023-12-29T10:31:46;8.13;;;6.28;;
41799;SDS011;27468;47.460;19.034;2023-12-29T10:34:21;15.07;;;7.60;;
41799;SDS011;27468;47.460;19.034;2023-12-29T10:36:57;7.88;;;6.45;;
41799;SDS011;27468;47.460;19.034;2023-12-29T10:39:34;7.30;;;6.10;;
41799;SDS011;27468;47.460;19.034;2023-12-29T10:42:04;5.03;;;3.53;;
41799;SDS011;27468;47.460;19.034;2023-12-29T10:44:34;11.00;;;7.60;;
41799;SDS011;27468;47.460;19.034;2023-12-29T10:47:10;4.63;;;4.10;;
41799;SDS011;27468;47.460;19.034;2023-12-29T10:49:36;7.53;;;6.45;;
41799;SDS011;27468;47.460;19.034;2023-12-29T10:52:12;6.07;;;4.03;;
41799;SDS011;27468;47.460;19.034;2023-12-29T10:54:41;11.18;;;6.30;;
41799;SDS011;27468;47.460;19.034;2023-12-29T10:57:11;5.82;;;4.75;;
41799;SDS011;27468;47.460;19.034;2023-12-29T10:59:37;4.80;;;4.30;;
41799;SDS011;27468;47.460;19.034;2023-12-29T11:02:02;5.00;;;3.72;;
41799;SDS011;27468;47.460;19.034;2023-12-29T11:04:28;8.32;;;6.22;;
41799;SDS011;27468;47.460;19.034;2023-12-29T11:06:54;5.03;;;4.60;;
41799;SDS011;27468;47.460;19.034;2023-12-29T11:09:30;8.88;;;5.20;;
41799;SDS011;27468;47.460;19.034;2023-12-29T11:11:57;5.93;;;5.45;;
41799;SDS011;27468;47.460;19.034;2023-12-29T11:14:25;4.15;;;3.78;;
41799;SDS011;27468;47.460;19.034;2023-12-29T11:16:51;7.35;;;5.05;;
41799;SDS011;27468;47.460;19.034;2023-12-29T11:19:17;5.50;;;4.70;;
41799;SDS011;27468;47.460;19.034;2023-12-29T11:21:43;5.10;;;3.05;;
41799;SDS011;27468;47.460;19.034;2023-12-29T11:24:09;4.68;;;4.05;;
41799;SDS011;27468;47.460;19.034;2023-12-29T11:26:35;5.10;;;4.63;;
41799;SDS011;27468;47.460;19.034;2023-12-29T11:29:01;3.55;;;3.20;;
41799;SDS011;27468;47.460;19.034;2023-12-29T11:31:29;5.53;;;3.55;;
41799;SDS011;27468;47.460;19.034;2023-12-29T11:34:00;5.50;;;5.10;;
41799;SDS011;27468;47.460;19.034;2023-12-29T11:36:32;4.53;;;4.22;;
41799;SDS011;27468;47.460;19.034;2023-12-29T11:39:10;4.75;;;4.30;;
41799;SDS011;27468;47.460;19.034;2023-12-29T11:41:41;3.58;;;3.15;;
41799;SDS011;27468;47.460;19.034;2023-12-29T11:44:12;3.80;;;3.50;;
41799;SDS011;27468;47.460;19.034;2023-12-29T11:46:41;4.00;;;3.70;;
41799;SDS011;27468;47.460;19.034;2023-12-29T11:49:08;5.07;;;4.00;;
41799;SDS011;27468;47.460;19.034;2023-12-29T11:51:35;7.55;;;4.93;;
41799;SDS011;27468;47.460;19.034;2023-12-29T11:54:04;7.40;;;4.60;;
41799;SDS011;27468;47.460;19.034;2023-12-29T11:56:30;5.18;;;4.70;;
41799;SDS011;27468;47.460;19.034;2023-12-29T12:01:38;4.25;;;3.95;;
41799;SDS011;27468;47.460;19.034;2023-12-29T12:04:04;7.82;;;4.80;;
41799;SDS011;27468;47.460;19.034;2023-12-29T12:06:38;7.07;;;5.53;;
41799;SDS011;27468;47.460;19.034;2023-12-29T12:09:15;4.65;;;3.50;;
41799;SDS011;27468;47.460;19.034;2023-12-29T12:11:41;5.15;;;4.70;;
41799;SDS011;27468;47.460;19.034;2023-12-29T12:14:07;4.47;;;4.07;;
41799;SDS011;27468;47.460;19.034;2023-12-29T12:19:13;5.05;;;4.65;;
41799;SDS011;27468;47.460;19.034;2023-12-29T12:21:39;7.15;;;6.05;;
41799;SDS011;27468;47.460;19.034;2023-12-29T12:24:05;5.03;;;4.70;;
41799;SDS011;27468;47.460;19.034;2023-12-29T12:26:31;4.10;;;3.58;;
41799;SDS011;27468;47.460;19.034;2023-12-29T12:28:57;3.75;;;3.25;;
41799;SDS011;27468;47.460;19.034;2023-12-29T12:31:23;6.13;;;5.25;;
41799;SDS011;27468;47.460;19.034;2023-12-29T12:33:58;5.60;;;4.93;;
41799;SDS011;27468;47.460;19.034;2023-12-29T12:36:27;6.45;;;3.67;;
41799;SDS011;27468;47.460;19.034;2023-12-29T12:38:53;7.05;;;5.30;;
41799;SDS011;27468;47.460;19.034;2023-12-29T12:41:20;6.65;;;6.15;;
41799;SDS011;27468;47.460;19.034;2023-12-29T12:43:52;3.85;;;3.60;;
41799;SDS011;27468;47.460;19.034;2023-12-29T12:46:22;6.65;;;4.38;;
41799;SDS011;27468;47.460;19.034;2023-12-29T12:48:51;5.55;;;4.05;;
41799;SDS011;27468;47.460;19.034;2023-12-29T12:51:18;5.55;;;3.45;;
41799;SDS011;27468;47.460;19.034;2023-12-29T12:53:45;5.63;;;5.00;;
41799;SDS011;27468;47.460;19.034;2023-12-29T12:56:12;5.32;;;4.35;;
41799;SDS011;27468;47.460;19.034;2023-12-29T12:58:38;4.68;;;3.10;;
41799;SDS011;27468;47.460;19.034;2023-12-29T13:01:04;2.58;;;2.38;;
41799;SDS011;27468;47.460;19.034;2023-12-29T13:03:30;5.10;;;2.78;;
41799;SDS011;27468;47.460;19.034;2023-12-29T13:05:57;2.60;;;2.35;;
41799;SDS011;27468;47.460;19.034;2023-12-29T13:08:23;1.23;;;1.13;;
41799;SDS011;27468;47.460;19.034;2023-12-29T13:10:50;1.70;;;1.60;;
41799;SDS011;27468;47.460;19.034;2023-12-29T13:13:15;2.00;;;1.48;;
41799;SDS011;27468;47.460;19.034;2023-12-29T13:15:50;2.15;;;1.73;;
41799;SDS011;27468;47.460;19.034;2023-12-29T13:18:28;2.35;;;2.08;;
41799;SDS011;27468;47.460;19.034;2023-12-29T13:20:53;3.25;;;1.70;;
41799;SDS011;27468;47.460;19.034;2023-12-29T13:23:19;2.63;;;1.42;;
41799;SDS011;27468;47.460;19.034;2023-12-29T13:25:44;2.88;;;2.17;;
41799;SDS011;27468;47.460;19.034;2023-12-29T13:28:11;2.10;;;1.98;;
41799;SDS011;27468;47.460;19.034;2023-12-29T13:30:38;1.70;;;1.60;;
41799;SDS011;27468;47.460;19.034;2023-12-29T13:35:57;3.75;;;2.45;;
41799;SDS011;27468;47.460;19.034;2023-12-29T13:38:37;2.28;;;2.00;;
41799;SDS011;27468;47.460;19.034;2023-12-29T13:41:09;3.55;;;2.22;;
41799;SDS011;27468;47.460;19.034;2023-12-29T13:43:38;2.30;;;1.83;;
41799;SDS011;27468;47.460;19.034;2023-12-29T13:46:07;2.20;;;1.70;;
41799;SDS011;27468;47.460;19.034;2023-12-29T13:48:36;1.35;;;1.15;;
41799;SDS011;27468;47.460;19.034;2023-12-29T13:51:02;1.83;;;1.73;;
41799;SDS011;27468;47.460;19.034;2023-12-29T13:53:28;2.75;;;2.40;;
41799;SDS011;27468;47.460;19.034;2023-12-29T13:56:05;2.63;;;2.25;;
41799;SDS011;27468;47.460;19.034;2023-12-29T13:58:31;5.80;;;2.33;;
41799;SDS011;27468;47.460;19.034;2023-12-29T14:00:57;2.95;;;2.30;;
41799;SDS011;27468;47.460;19.034;2023-12-29T14:03:26;3.65;;;3.33;;
41799;SDS011;27468;47.460;19.034;2023-12-29T14:06:03;2.33;;;2.22;;
41799;SDS011;27468;47.460;19.034;2023-12-29T14:11:06;3.22;;;1.70;;
41799;SDS011;27468;47.460;19.034;2023-12-29T14:13:35;4.35;;;2.72;;
41799;SDS011;27468;47.460;19.034;2023-12-29T14:16:00;3.72;;;2.00;;
41799;SDS011;27468;47.460;19.034;2023-12-29T14:21:24;2.38;;;2.17;;
41799;SDS011;27468;47.460;19.034;2023-12-29T14:24:02;2.47;;;1.35;;
41799;SDS011;27468;47.460;19.034;2023-12-29T14:26:33;3.08;;;2.47;;
41799;SDS011;27468;47.460;19.034;2023-12-29T14:29:08;3.15;;;2.50;;
41799;SDS011;27468;47.460;19.034;2023-12-29T14:31:34;3.47;;;2.17;;
41799;SDS011;27468;47.460;19.034;2023-12-29T14:34:01;5.38;;;2.80;;
41799;SDS011;27468;47.460;19.034;2023-12-29T14:36:28;4.50;;;2.63;;
41799;SDS011;27468;47.460;19.034;2023-12-29T14:38:53;3.03;;;2.47;;
41799;SDS011;27468;47.460;19.034;2023-12-29T14:41:18;4.63;;;3.88;;
41799;SDS011;27468;47.460;19.034;2023-12-29T14:43:44;2.03;;;1.77;;
41799;SDS011;27468;47.460;19.034;2023-12-29T14:46:09;3.70;;;3.45;;
41799;SDS011;27468;47.460;19.034;2023-12-29T14:48:35;3.35;;;2.15;;